Weather at Calgary International Airport

Public forecast

Using degrees Celsius for public forecast. Weather courtesy of forecast.io.

Current aviation weather report (METAR) for Calgary International Airport

2024/06/19 05:00 (retrieved 14 minutes ago)

CYYC 190500Z 17003KT 15SM SCT058 BKN130 BKN230 07/05 A3006 RMK SC3AC2CI2 SLP208

Closest aviation forecast (TAF) to Calgary International Airport

Forecast is more than 6 hours old.

Closest forecast is Edmonton (CFB Namao) Heliport, 154.3 nm (285.8 km) N.

2024/06/18 18:06 Ammendment (retrieved 11 hours ago)

TAF AMD TAF AMD CYED 182102Z 1818/1906 CNL RMK END OF FLY PROGRAM NXT FCST BY 190000Z